Terminal Aerodrome Forecast
Issued by NWS

Home | Current Version | Previous Version | Text Only | Print | Product List | Glossary On
Versions: 1 2 3 4 5 6 7 8 9 10 11 12 13 14 15 16 17 18
000
FTUS41 KPBZ 260600 AAA
TAFFKL
TAF AMD
KFKL 260657Z 2607/2706 00000KT P6SM OVC021
     FM261600 01005KT 2SM -SN OVC012
     FM262100 03005KT P6SM OVC012
      AMD LTD TO CLD VIS AND WIND=

USA.gov is the U.S. government's official web portal to all federal, state and local government web resources and services.